In Rescue
 
Open Full Screen Window  High Contrast Mode
Wind Gusting 00 knots
05
January 22, 2020 7:15 PM EST
Weather Information
Wind Direction
  190 °
Wind Speed
  05 kt (6 mph)
Wind Gust
  00 kt (0 mph)
Altimeter
30.28 in
Visibility
10 SM
Temperature
-01° C
30° F
Dewpoint
-07° C
19° F
Humidity
64%
Sky Condition
Clear
VFR

METAR KVLL 230015Z AUTO 19005KT 10SM CLR M01/M07 A3028 RMK AO2 T10131070

FAA Disclaimer: The data displayed is for advisory purposes only and is not to be used for flight planning or operations.